KCSQKENL

Guest
Details From KCSQ - CRESTON MUNI
To KENL - CENTRALIA MUNI
Flight Number -
Tags generated
Created
Modified
Stats Distance 286 nm / 530 km
Max Altitude 11,000 ft / 3,353 m
Waypoints 3
Social Downloads 0
Likes 0
Share VATSIM

Download

Looking for another format? Having issues loading an existing format? Contact us
Advertisement - Login to hide

Notes

Basic altitude profile: - Ascent Rate: 2500ft/min - Ascent Speed: 250kts - Cruise Altitude: 35000ft - Cruise Speed: 420kts - Descent Rate: 1500ft/min - Descent Speed: 250kts Options: - Use NATs: no - Use PACOTS: no - Use low airways: no - Use high airways: no

Route

KCSQ 3900N09000W KENL

ID Type Via Altitude Latitude Longitude Leg Dist Tot Dist Heading (true) Name
O KCSQ APT - 0 ft / 0 m 41.02172˚ -94.36283˚ - 0 nm - CRESTON MUNI
3900N09000W LATLON - 11,000 ft / 3,353 m 39.00000˚ -90.00000˚ 234 nm 234 nm 120° / 123° -
O KENL APT - 0 ft / 0 m 38.51515˚ -89.09099˚ 51 nm 286 nm 124° / 125° CENTRALIA MUNI

Altitude Profile

Advertisement - Login to hide

Weather


0- 5 10 15 20 25 30 35+ Temperature / ° C

Clouds and Precipitation
Forecast for 2017-12-14 18:00 UTC. Updated 2 hours ago

Ground ~20,000 ft ~40,000 ft Winds

KCSQ

Details ICAO KCSQ
Name CRESTON MUNI
Region United States
Timezone America/Chicago (UTC-6.0)
Stats Elevation 1,300 ft / 396 m (AMSL)
Location 41.021721° -94.362829°
Runways 2
Magnetic Variation 1.400° E

METAR

KCSQ 141835Z AUTO 30004KT 10SM OVC036 M00/M05 A3006 RMK AO2

Decode

TAF

Not found

Departure Runways

ID Width Length Bearing (true) Bearing (mag) Surface Threshold Offset Overrun Length
04 100 ft / 30 m 1,691 ft / 516 m 44.71° 43.31° Grass 0 ft / 0 m 0 ft / 0 m
16 75 ft / 23 m 4,907 ft / 1,496 m 164.90° 163.50° Asphalt 0 ft / 0 m 0 ft / 0 m
22 100 ft / 30 m 1,691 ft / 516 m 224.71° 223.31° Grass 0 ft / 0 m 0 ft / 0 m
34 75 ft / 23 m 4,907 ft / 1,496 m 344.90° 343.50° Asphalt 100 ft / 30 m 0 ft / 0 m

KENL

Details ICAO KENL
Name CENTRALIA MUNI
Region United States
Timezone America/Chicago (UTC-6.0)
Stats Elevation 534 ft / 163 m (AMSL)
Location 38.515150° -89.090990°
Runways 2
Magnetic Variation 2.353° W

METAR

KENL 141835Z AUTO 30004KT 10SM OVC034 01/M06 A3006 RMK AO2 T00101061

Decode

TAF

Not found

Destination Runways

ID Width Length Bearing (true) Bearing (mag) Surface Threshold Offset Overrun Length
09 60 ft / 18 m 3,293 ft / 1,004 m 87.15° 89.50° Asphalt 300 ft / 91 m 0 ft / 0 m
18 75 ft / 23 m 5,011 ft / 1,527 m 180.64° 182.99° Asphalt 0 ft / 0 m 0 ft / 0 m
27 60 ft / 18 m 3,293 ft / 1,004 m 267.16° 269.51° Asphalt 300 ft / 91 m 0 ft / 0 m
36 75 ft / 23 m 5,011 ft / 1,527 m 0.64° 2.99° Asphalt 0 ft / 0 m 0 ft / 0 m